Time;durP1;ratioP1;P1;durP2;ratioP2;P2;SDS_P1;SDS_P2;PMS_P1;PMS_P2;Temp;Humidity;BMP_temperature;BMP_pressure;BME280_temperature;BME280_humidity;BME280_pressure;Samples;Min_cycle;Max_cycle;Signal;HPM_P1;HPM_P2
2020/12/05 00:01:53;;;;;;;20.20;15.77;;;3.30;99.90;;;;;;5054413;28;20301;-74
2020/12/05 00:04:18;;;;;;;21.80;14.93;;;3.20;99.90;;;;;;5061612;28;20191;-74
2020/12/05 00:06:44;;;;;;;16.90;13.40;;;3.30;99.90;;;;;;5062547;28;20194;-74
2020/12/05 00:09:11;;;;;;;18.40;13.30;;;3.30;99.90;;;;;;5062382;28;20282;-74
2020/12/05 00:11:36;;;;;;;15.60;13.23;;;3.30;99.90;;;;;;5064855;28;21280;-74
2020/12/05 00:14:02;;;;;;;19.70;13.90;;;3.40;99.90;;;;;;5056290;28;20186;-74
2020/12/05 00:16:28;;;;;;;15.47;13.80;;;3.40;99.90;;;;;;5062636;28;20218;-74
2020/12/05 00:18:54;;;;;;;16.50;13.80;;;3.40;99.90;;;;;;5065516;28;20189;-74
2020/12/05 00:21:24;;;;;;;25.48;13.70;;;3.40;99.90;;;;;;5058925;28;20236;-74
2020/12/05 00:23:50;;;;;;;14.80;12.82;;;3.40;99.90;;;;;;5062031;28;20198;-74
2020/12/05 00:26:18;;;;;;;17.77;13.90;;;3.40;99.90;;;;;;5061527;28;20178;-73
2020/12/05 00:28:43;;;;;;;18.38;13.68;;;3.40;99.90;;;;;;5062939;28;20277;-74
2020/12/05 00:31:11;;;;;;;18.30;14.00;;;3.40;99.90;;;;;;5065311;28;20648;-73
2020/12/05 00:33:36;;;;;;;17.83;13.45;;;3.40;99.90;;;;;;5065493;28;20193;-73
2020/12/05 00:36:02;;;;;;;17.90;12.40;;;3.40;99.90;;;;;;5061746;28;20198;-75
2020/12/05 00:38:28;;;;;;;17.40;12.20;;;3.30;99.90;;;;;;5061990;28;20191;-74
2020/12/05 00:40:53;;;;;;;15.40;11.60;;;3.30;99.90;;;;;;5064051;28;20186;-74
2020/12/05 00:43:19;;;;;;;13.20;11.20;;;3.30;99.90;;;;;;5057353;28;20673;-73
2020/12/05 00:45:44;;;;;;;13.87;10.97;;;3.30;99.90;;;;;;5061972;28;20206;-73
2020/12/05 00:48:10;;;;;;;18.70;12.37;;;3.30;99.90;;;;;;5063536;28;20229;-73
2020/12/05 00:50:35;;;;;;;14.87;11.07;;;3.30;99.90;;;;;;5064812;28;20229;-74
2020/12/05 00:53:01;;;;;;;14.03;11.37;;;3.20;99.90;;;;;;5053529;28;20507;-74
2020/12/05 00:55:26;;;;;;;17.20;11.60;;;3.20;99.90;;;;;;5062805;28;20234;-73
2020/12/05 00:57:52;;;;;;;16.20;11.33;;;3.10;99.90;;;;;;5061530;28;20190;-73
2020/12/05 01:00:18;;;;;;;16.47;11.90;;;3.20;99.90;;;;;;5053133;28;20553;-73
2020/12/05 01:02:45;;;;;;;17.27;11.85;;;3.10;99.90;;;;;;5058232;28;20245;-74
2020/12/05 01:05:10;;;;;;;11.70;9.80;;;3.20;99.90;;;;;;5063165;28;20188;-73
2020/12/05 01:07:36;;;;;;;14.37;10.10;;;3.10;99.90;;;;;;5060676;28;20186;-73
2020/12/05 01:10:01;;;;;;;14.73;11.30;;;3.20;99.90;;;;;;5061739;28;20593;-73
2020/12/05 01:12:27;;;;;;;14.67;11.40;;;3.10;99.90;;;;;;5060869;28;20198;-73
2020/12/05 01:14:52;;;;;;;15.23;11.67;;;3.10;99.90;;;;;;5064287;28;20178;-74
2020/12/05 01:17:25;;;;;;;15.93;12.60;;;3.10;99.90;;;;;;5064284;28;20186;-73
2020/12/05 01:19:52;;;;;;;14.77;11.27;;;3.10;99.90;;;;;;5052929;28;20216;-73
2020/12/05 01:22:20;;;;;;;16.65;11.23;;;3.10;99.90;;;;;;5059643;28;20215;-74
2020/12/05 01:24:45;;;;;;;13.57;10.45;;;3.10;99.90;;;;;;5062793;28;20188;-73
2020/12/05 01:27:11;;;;;;;17.27;12.17;;;3.20;99.90;;;;;;5063015;28;20637;-74
2020/12/05 01:29:36;;;;;;;13.00;11.00;;;3.20;99.90;;;;;;5059294;28;20421;-73
2020/12/05 01:32:02;;;;;;;16.80;10.77;;;3.20;99.90;;;;;;5071753;28;20220;-73
2020/12/05 01:34:27;;;;;;;12.47;10.77;;;3.20;99.90;;;;;;5064227;28;20213;-73
2020/12/05 01:36:53;;;;;;;14.73;10.40;;;3.20;99.90;;;;;;5061030;28;20186;-73
2020/12/05 01:39:18;;;;;;;14.13;11.10;;;3.20;99.90;;;;;;5060691;28;20186;-73
2020/12/05 01:41:44;;;;;;;13.23;11.17;;;3.10;99.90;;;;;;5060712;28;20305;-73
2020/12/05 01:44:09;;;;;;;16.60;12.07;;;3.00;99.90;;;;;;5062532;28;20194;-74
2020/12/05 01:46:40;;;;;;;17.93;12.67;;;3.00;99.90;;;;;;5063455;28;20182;-75
2020/12/05 01:49:14;;;;;;;19.00;12.82;;;3.00;99.90;;;;;;5061906;28;20219;-74
2020/12/05 01:51:39;;;;;;;20.48;12.88;;;3.00;99.90;;;;;;5062509;28;20550;-74
2020/12/05 01:54:07;;;;;;;16.60;12.77;;;2.90;99.90;;;;;;5061553;28;20190;-74
2020/12/05 01:56:33;;;;;;;19.40;13.45;;;2.90;99.90;;;;;;5060306;28;20206;-74
2020/12/05 01:58:59;;;;;;;17.03;13.70;;;2.90;99.90;;;;;;5060039;28;20182;-74
2020/12/05 02:01:27;;;;;;;18.20;14.95;;;2.80;99.90;;;;;;5063238;28;20209;-74
2020/12/05 02:03:56;;;;;;;20.63;14.70;;;2.70;99.90;;;;;;5055280;28;20190;-73
2020/12/05 02:06:41;;;;;;;20.42;14.10;;;2.60;99.90;;;;;;5061391;28;20673;-74
2020/12/05 02:09:15;;;;;;;19.10;13.20;;;2.60;99.90;;;;;;5062828;28;20198;-74
2020/12/05 02:11:49;;;;;;;18.50;13.23;;;2.50;99.90;;;;;;5060413;28;20192;-74
2020/12/05 02:14:17;;;;;;;14.90;12.82;;;2.50;99.90;;;;;;5059948;28;20628;-74
2020/12/05 02:16:43;;;;;;;17.98;12.80;;;2.40;99.90;;;;;;5059915;28;20187;-74
2020/12/05 02:19:16;;;;;;;16.97;11.93;;;2.40;99.90;;;;;;5059333;28;20229;-74
2020/12/05 02:21:43;;;;;;;15.05;11.02;;;2.30;99.90;;;;;;5048460;28;20213;-74
2020/12/05 02:24:09;;;;;;;15.85;11.25;;;2.30;99.90;;;;;;5052203;28;20205;-73
2020/12/05 02:26:35;;;;;;;18.00;11.45;;;2.30;99.90;;;;;;5061827;28;20236;-73
2020/12/05 02:29:01;;;;;;;20.13;13.47;;;2.30;99.90;;;;;;5063243;28;20186;-73
2020/12/05 02:31:26;;;;;;;17.00;12.03;;;2.30;99.90;;;;;;5054684;28;20440;-73
2020/12/05 02:33:52;;;;;;;19.20;11.87;;;2.30;99.90;;;;;;5063429;28;20188;-73
2020/12/05 02:36:18;;;;;;;17.13;12.00;;;2.30;99.90;;;;;;5063250;28;20592;-73
2020/12/05 02:39:00;;;;;;;19.33;11.93;;;2.30;99.90;;;;;;5058868;28;20213;-73
2020/12/05 02:41:27;;;;;;;19.88;14.18;;;2.20;99.90;;;;;;5058509;28;20291;-73
2020/12/05 02:43:52;;;;;;;22.98;14.38;;;2.20;99.90;;;;;;5063217;28;20189;-73
2020/12/05 02:46:18;;;;;;;18.87;13.80;;;2.20;99.90;;;;;;5063167;28;20182;-73
2020/12/05 02:48:43;;;;;;;18.00;11.87;;;2.10;99.90;;;;;;5062014;28;20233;-73
2020/12/05 02:51:09;;;;;;;17.80;11.57;;;2.10;99.90;;;;;;5062936;28;20544;-73
2020/12/05 02:53:35;;;;;;;21.27;14.20;;;2.10;99.90;;;;;;5061001;28;20186;-73
2020/12/05 02:56:00;;;;;;;20.33;12.80;;;2.10;99.90;;;;;;5056090;28;20425;-73
2020/12/05 02:58:26;;;;;;;19.47;12.73;;;2.10;99.90;;;;;;5055547;28;20213;-73
2020/12/05 03:00:51;;;;;;;17.80;12.07;;;2.10;99.90;;;;;;5067650;28;20190;-73
2020/12/05 03:03:17;;;;;;;17.93;12.57;;;2.00;99.90;;;;;;5054375;28;20218;-73
2020/12/05 03:05:42;;;;;;;17.50;12.30;;;2.00;99.90;;;;;;5054951;28;20657;-74
2020/12/05 03:08:08;;;;;;;19.60;13.50;;;2.00;99.90;;;;;;5059578;28;20213;-74
2020/12/05 03:10:33;;;;;;;24.53;13.70;;;2.00;99.90;;;;;;5059555;28;20639;-74
2020/12/05 03:12:59;;;;;;;14.87;11.10;;;2.00;99.90;;;;;;5056987;28;20178;-74
2020/12/05 03:15:24;;;;;;;18.80;11.60;;;2.00;99.90;;;;;;5056424;28;20534;-73
2020/12/05 03:17:50;;;;;;;17.30;11.90;;;2.00;99.90;;;;;;5059061;28;20561;-73
2020/12/05 03:20:15;;;;;;;20.47;13.33;;;2.00;99.90;;;;;;5058861;28;20186;-74
2020/12/05 03:22:41;;;;;;;15.70;11.30;;;2.00;99.90;;;;;;5055944;28;20702;-74
2020/12/05 03:25:06;;;;;;;18.10;10.70;;;2.00;99.90;;;;;;5061979;28;20191;-74
2020/12/05 03:27:32;;;;;;;19.50;11.03;;;2.00;99.90;;;;;;5057246;28;20526;-74
2020/12/05 03:29:57;;;;;;;16.60;11.20;;;2.00;99.90;;;;;;5063295;28;20189;-74
2020/12/05 03:32:30;;;;;;;17.90;10.73;;;2.00;99.90;;;;;;5068240;28;20189;-74
2020/12/05 03:34:55;;;;;;;18.95;11.02;;;2.00;99.90;;;;;;5057000;28;20244;-74
2020/12/05 03:37:24;;;;;;;14.33;10.20;;;2.00;99.90;;;;;;5058222;28;20214;-74
2020/12/05 03:39:50;;;;;;;17.65;11.20;;;2.00;99.90;;;;;;5062781;28;20205;-74
2020/12/05 03:42:16;;;;;;;15.65;10.80;;;2.00;99.90;;;;;;5065962;28;20223;-74
2020/12/05 03:44:41;;;;;;;12.57;10.27;;;2.00;99.90;;;;;;5066102;28;20178;-74
2020/12/05 03:47:07;;;;;;;18.33;10.57;;;2.00;99.90;;;;;;5065350;28;20264;-74
2020/12/05 03:49:33;;;;;;;13.10;9.80;;;2.10;99.90;;;;;;5066236;28;20676;-74
2020/12/05 03:52:00;;;;;;;14.97;9.77;;;2.00;99.90;;;;;;5064731;28;20817;-74
2020/12/05 03:54:25;;;;;;;12.73;9.73;;;2.00;99.90;;;;;;5054808;28;20183;-74
2020/12/05 03:56:51;;;;;;;12.73;9.07;;;2.00;99.90;;;;;;5062629;28;20194;-74
2020/12/05 03:59:16;;;;;;;13.43;9.13;;;2.00;99.90;;;;;;5065107;28;20264;-74
2020/12/05 04:01:42;;;;;;;11.50;8.97;;;2.00;99.90;;;;;;5066103;28;20216;-74
2020/12/05 04:04:07;;;;;;;12.00;9.23;;;2.10;99.90;;;;;;5056775;28;20189;-74
2020/12/05 04:06:33;;;;;;;12.70;9.00;;;2.10;99.90;;;;;;5067052;28;20181;-75
2020/12/05 04:08:58;;;;;;;13.80;9.10;;;2.10;99.90;;;;;;5055151;28;20190;-74
2020/12/05 04:11:24;;;;;;;15.20;10.47;;;2.10;99.90;;;;;;5059706;28;20189;-74
2020/12/05 04:13:50;;;;;;;16.50;10.30;;;2.10;99.90;;;;;;5059152;28;20182;-74
2020/12/05 04:16:15;;;;;;;12.13;9.10;;;2.10;99.90;;;;;;5065484;28;20614;-74
2020/12/05 04:18:40;;;;;;;14.27;9.40;;;2.10;99.90;;;;;;5065595;28;20178;-74
2020/12/05 04:21:06;;;;;;;11.60;9.20;;;2.10;99.90;;;;;;5064124;28;20285;-74
2020/12/05 04:23:32;;;;;;;12.53;9.60;;;2.20;99.90;;;;;;5065674;28;20186;-73
2020/12/05 04:25:57;;;;;;;13.97;9.17;;;2.20;99.90;;;;;;5065605;28;20551;-74
2020/12/05 04:28:23;;;;;;;12.73;9.30;;;2.20;99.90;;;;;;5056890;28;20441;-74
2020/12/05 04:30:49;;;;;;;11.00;8.13;;;2.20;99.90;;;;;;5064961;28;20193;-74
2020/12/05 04:33:14;;;;;;;15.53;10.10;;;2.20;99.90;;;;;;5063902;28;20689;-74
2020/12/05 04:35:39;;;;;;;14.30;9.70;;;2.20;99.90;;;;;;5061859;28;20190;-74
2020/12/05 04:38:05;;;;;;;13.17;9.93;;;2.20;99.90;;;;;;5061957;28;20238;-74
2020/12/05 04:40:31;;;;;;;14.67;9.20;;;2.20;99.90;;;;;;5061678;28;20701;-73
2020/12/05 04:43:01;;;;;;;12.00;9.27;;;2.20;99.90;;;;;;5066069;28;20236;-74
2020/12/05 04:45:28;;;;;;;13.05;9.93;;;2.20;99.90;;;;;;5062580;28;20182;-73
2020/12/05 04:47:55;;;;;;;10.77;9.63;;;2.20;99.90;;;;;;5059187;28;20236;-73
2020/12/05 04:50:22;;;;;;;13.02;9.30;;;2.20;99.90;;;;;;5063635;28;20220;-73
2020/12/05 04:52:50;;;;;;;14.57;9.73;;;2.20;99.90;;;;;;5059996;28;20610;-73
2020/12/05 04:55:16;;;;;;;14.23;8.93;;;2.10;99.90;;;;;;5067881;28;20269;-74
2020/12/05 04:57:57;;;;;;;12.70;9.10;;;2.10;99.90;;;;;;5061193;28;20645;-74
2020/12/05 05:00:22;;;;;;;12.98;9.90;;;2.10;99.90;;;;;;5061612;28;20181;-74
2020/12/05 05:02:48;;;;;;;14.77;9.03;;;2.10;99.90;;;;;;5064903;28;20218;-74
2020/12/05 05:05:14;;;;;;;13.37;8.30;;;2.10;99.90;;;;;;5064909;28;20743;-74
2020/12/05 05:07:48;;;;;;;11.82;8.15;;;2.10;99.90;;;;;;5057639;28;20540;-74
2020/12/05 05:10:20;;;;;;;11.70;9.02;;;2.10;99.90;;;;;;5062500;28;20175;-74
2020/12/05 05:12:46;;;;;;;11.93;7.40;;;2.10;99.90;;;;;;5064502;28;20182;-74
2020/12/05 05:15:20;;;;;;;10.87;8.07;;;2.10;99.90;;;;;;5064637;28;20185;-74
2020/12/05 05:17:49;;;;;;;10.80;7.95;;;2.10;99.90;;;;;;5057642;28;20251;-74
2020/12/05 05:20:24;;;;;;;12.20;9.07;;;2.10;99.90;;;;;;5060897;28;20175;-73
2020/12/05 05:22:52;;;;;;;15.98;10.13;;;2.10;99.90;;;;;;5053072;28;20214;-74
2020/12/05 05:25:18;;;;;;;9.95;8.60;;;2.10;99.90;;;;;;5058667;28;20273;-74
2020/12/05 05:27:57;;;;;;;15.20;11.33;;;2.10;99.90;;;;;;5063232;28;20265;-74
2020/12/05 05:30:23;;;;;;;14.90;11.45;;;2.10;99.90;;;;;;5064113;28;20424;-74
2020/12/05 05:32:50;;;;;;;14.97;11.53;;;2.10;99.90;;;;;;5053737;28;20251;-74
2020/12/05 05:35:16;;;;;;;12.07;10.45;;;2.10;99.90;;;;;;5064072;28;20529;-74
2020/12/05 05:37:43;;;;;;;13.40;9.60;;;2.10;99.90;;;;;;5061648;28;20269;-74
2020/12/05 05:40:11;;;;;;;10.88;8.48;;;2.10;99.90;;;;;;5064432;28;20428;-74
2020/12/05 05:42:39;;;;;;;12.02;8.75;;;2.10;99.90;;;;;;5054291;28;20309;-74
2020/12/05 05:45:21;;;;;;;10.05;7.82;;;2.10;99.90;;;;;;5060594;28;20182;-74
2020/12/05 05:47:49;;;;;;;9.30;7.65;;;2.10;99.90;;;;;;5054331;28;20712;-74
2020/12/05 05:50:32;;;;;;;8.95;6.43;;;2.20;99.90;;;;;;5063618;28;20687;-74
2020/12/05 05:52:59;;;;;;;6.70;6.00;;;2.20;99.90;;;;;;5040540;28;20675;-73
2020/12/05 05:55:46;;;;;;;8.77;6.75;;;2.20;99.90;;;;;;5063453;28;20182;-74
2020/12/05 05:58:13;;;;;;;8.68;6.85;;;2.20;99.90;;;;;;5054448;28;20175;-73
2020/12/05 06:00:41;;;;;;;8.95;6.40;;;2.20;99.90;;;;;;5060034;28;20182;-74
2020/12/05 06:03:20;;;;;;;8.57;7.10;;;2.20;99.90;;;;;;5051715;28;20218;-73
2020/12/05 06:05:49;;;;;;;8.90;6.97;;;2.20;99.90;;;;;;5059858;28;20183;-74
2020/12/05 06:08:32;;;;;;;8.65;7.03;;;2.20;99.90;;;;;;5063393;28;20235;-73
2020/12/05 06:11:02;;;;;;;10.05;6.47;;;2.20;99.90;;;;;;5060293;28;20174;-74
2020/12/05 06:13:29;;;;;;;7.25;6.05;;;2.20;99.90;;;;;;5060042;28;20542;-73
2020/12/05 06:15:59;;;;;;;6.50;5.90;;;2.20;99.90;;;;;;5059840;28;20195;-73
2020/12/05 06:18:25;;;;;;;7.72;6.95;;;2.20;99.90;;;;;;5060842;28;20192;-73
2020/12/05 06:20:52;;;;;;;9.05;6.78;;;2.20;99.90;;;;;;5053107;28;20601;-74
2020/12/05 06:23:20;;;;;;;9.30;6.65;;;2.20;99.90;;;;;;5059904;28;20652;-73
2020/12/05 06:25:53;;;;;;;7.70;6.93;;;2.20;99.90;;;;;;5059551;28;20186;-74
2020/12/05 06:28:21;;;;;;;7.82;7.00;;;2.20;99.90;;;;;;5059729;28;20248;-73
2020/12/05 06:30:46;;;;;;;7.53;6.72;;;2.20;99.90;;;;;;5060109;28;20221;-74
2020/12/05 06:33:52;;;;;;;7.90;6.70;;;2.20;99.90;;;;;;5062589;28;20209;-74
2020/12/05 06:36:26;;;;;;;8.38;6.60;;;2.20;99.90;;;;;;5053009;28;20247;-74
2020/12/05 06:39:13;;;;;;;8.15;6.88;;;2.10;99.90;;;;;;5059299;28;20181;-74
2020/12/05 06:41:41;;;;;;;9.32;6.45;;;2.10;99.90;;;;;;5056060;28;20206;-73
2020/12/05 06:44:08;;;;;;;9.55;7.20;;;2.10;99.90;;;;;;5061049;28;20197;-74
2020/12/05 06:46:57;;;;;;;8.35;6.72;;;2.10;99.90;;;;;;5062892;28;20178;-74
2020/12/05 06:49:38;;;;;;;8.52;6.80;;;2.00;99.90;;;;;;5058496;28;20171;-73
2020/12/05 06:52:24;;;;;;;9.55;6.93;;;2.00;99.90;;;;;;5059612;28;20185;-74
2020/12/05 06:54:57;;;;;;;10.80;7.85;;;2.00;99.90;;;;;;5059596;28;20209;-74
2020/12/05 06:57:28;;;;;;;9.55;7.25;;;2.00;99.90;;;;;;5062282;28;20183;-74
2020/12/05 07:00:11;;;;;;;7.90;7.03;;;2.00;99.90;;;;;;5060213;28;20558;-74
2020/12/05 07:02:37;;;;;;;7.57;6.00;;;2.00;99.90;;;;;;5059404;28;20218;-74
2020/12/05 07:05:18;;;;;;;7.60;6.20;;;2.00;99.90;;;;;;5062305;28;20177;-74
2020/12/05 07:07:54;;;;;;;8.07;6.28;;;2.00;99.90;;;;;;5063021;28;20273;-74
2020/12/05 07:10:59;;;;;;;8.02;6.68;;;2.00;99.90;;;;;;5055987;28;20197;-74
2020/12/05 07:13:51;;;;;;;9.38;8.30;;;2.00;99.90;;;;;;5056603;28;20206;-74
2020/12/05 07:16:22;;;;;;;13.80;7.75;;;2.00;99.90;;;;;;5066369;28;20268;-74
2020/12/05 07:18:53;;;;;;;18.40;9.10;;;2.00;99.90;;;;;;5065319;28;20231;-74
2020/12/05 07:21:20;;;;;;;11.77;8.02;;;2.00;99.90;;;;;;5055330;28;20183;-74
2020/12/05 07:23:46;;;;;;;15.95;8.55;;;2.00;99.90;;;;;;5062336;28;20201;-74
2020/12/05 07:26:14;;;;;;;15.02;8.65;;;2.00;99.90;;;;;;5063554;28;20592;-74
2020/12/05 07:28:47;;;;;;;11.00;7.97;;;2.00;99.90;;;;;;5060802;28;20225;-74
2020/12/05 07:31:14;;;;;;;11.38;6.57;;;2.00;99.90;;;;;;5064228;28;20545;-74
2020/12/05 07:33:40;;;;;;;14.05;6.43;;;2.10;99.90;;;;;;5066629;28;20247;-74
2020/12/05 07:36:08;;;;;;;14.95;8.75;;;2.10;99.90;;;;;;5056750;28;20284;-74
2020/12/05 07:38:36;;;;;;;13.10;7.70;;;2.10;99.90;;;;;;5057953;28;20182;-73
2020/12/05 07:41:09;;;;;;;18.20;9.80;;;2.10;99.90;;;;;;5062964;28;20182;-74
2020/12/05 07:43:36;;;;;;;19.00;9.80;;;2.10;99.90;;;;;;5056119;28;20226;-74
2020/12/05 07:46:07;;;;;;;20.15;9.52;;;2.10;99.90;;;;;;5048433;28;20441;-74
2020/12/05 07:48:33;;;;;;;21.10;10.25;;;2.10;99.90;;;;;;5055370;28;20713;-74
2020/12/05 07:50:59;;;;;;;17.92;10.88;;;2.10;99.90;;;;;;5063839;28;20186;-74
2020/12/05 07:53:34;;;;;;;20.92;12.70;;;2.20;99.90;;;;;;5065197;28;20661;-74
2020/12/05 07:56:17;;;;;;;28.50;14.70;;;2.20;99.90;;;;;;5062654;28;20285;-74
2020/12/05 07:58:47;;;;;;;26.77;15.40;;;2.20;99.90;;;;;;5056460;28;20637;-74
2020/12/05 08:01:49;;;;;;;22.80;13.38;;;2.20;99.90;;;;;;5049213;28;20256;-74
2020/12/05 08:04:47;;;;;;;20.65;12.85;;;2.30;99.90;;;;;;5063107;28;20186;-74
2020/12/05 08:07:22;;;;;;;17.42;11.63;;;2.30;99.90;;;;;;5063045;28;20182;-73
2020/12/05 08:09:50;;;;;;;14.93;10.75;;;2.30;99.90;;;;;;5066058;28;20607;-74
2020/12/05 08:12:24;;;;;;;12.85;9.50;;;2.30;99.90;;;;;;5063722;28;20212;-74
2020/12/05 08:14:50;;;;;;;12.57;8.77;;;2.40;99.90;;;;;;5061419;28;20190;-74
2020/12/05 08:17:15;;;;;;;11.43;8.47;;;2.40;99.90;;;;;;5062171;28;20235;-74
2020/12/05 08:19:41;;;;;;;11.40;9.30;;;2.40;99.90;;;;;;5058480;28;20177;-74
2020/12/05 08:22:08;;;;;;;11.57;8.82;;;2.40;99.90;;;;;;5065630;28;20225;-74
2020/12/05 08:24:48;;;;;;;10.73;8.30;;;2.50;99.90;;;;;;5062129;28;20183;-74
2020/12/05 08:27:16;;;;;;;12.10;8.00;;;2.50;99.90;;;;;;5064277;28;20648;-74
2020/12/05 08:29:42;;;;;;;10.52;7.18;;;2.50;99.90;;;;;;5062177;28;20198;-74
2020/12/05 08:32:07;;;;;;;7.27;6.07;;;2.60;99.90;;;;;;5061254;28;20179;-74
2020/12/05 08:34:33;;;;;;;9.03;7.47;;;2.60;99.90;;;;;;5063845;28;20532;-74
2020/12/05 08:37:01;;;;;;;7.20;5.90;;;2.50;99.90;;;;;;5065267;28;20186;-74
2020/12/05 08:39:31;;;;;;;6.55;5.85;;;2.70;99.90;;;;;;5056930;28;20178;-74
2020/12/05 08:41:57;;;;;;;7.95;5.15;;;2.70;99.90;;;;;;5062036;28;20206;-74
2020/12/05 08:44:28;;;;;;;6.90;5.10;;;2.70;99.90;;;;;;5062293;28;20186;-74
2020/12/05 08:47:08;;;;;;;5.70;5.20;;;2.80;99.90;;;;;;5059660;28;20567;-74
2020/12/05 08:49:41;;;;;;;5.97;5.38;;;2.80;99.90;;;;;;5063422;28;20229;-73
2020/12/05 08:52:08;;;;;;;5.10;4.65;;;2.80;99.90;;;;;;5071795;28;20178;-74
2020/12/05 08:54:46;;;;;;;11.30;7.93;;;2.80;99.90;;;;;;5061839;28;20197;-74
2020/12/05 08:57:12;;;;;;;8.05;6.63;;;2.80;99.90;;;;;;5061488;28;20174;-74
2020/12/05 08:59:38;;;;;;;7.38;6.68;;;2.80;99.90;;;;;;5060513;28;20182;-74
2020/12/05 09:02:04;;;;;;;7.00;6.38;;;2.90;99.90;;;;;;5058996;28;20579;-74
2020/12/05 09:04:34;;;;;;;8.07;6.50;;;2.90;99.90;;;;;;5057857;28;20182;-74
2020/12/05 09:07:16;;;;;;;7.25;6.07;;;2.90;99.90;;;;;;5059449;28;20594;-74
2020/12/05 09:09:46;;;;;;;5.80;5.20;;;3.00;99.90;;;;;;5059689;28;20201;-74
2020/12/05 09:12:15;;;;;;;6.43;5.55;;;3.00;99.90;;;;;;5054485;28;20193;-74
2020/12/05 09:14:42;;;;;;;6.65;5.43;;;3.00;99.90;;;;;;5062742;28;20182;-74
2020/12/05 09:17:29;;;;;;;7.10;5.82;;;3.10;99.90;;;;;;5053276;28;20194;-77
2020/12/05 09:20:14;;;;;;;6.20;5.57;;;3.10;99.90;;;;;;5046178;28;20537;-73
2020/12/05 09:22:45;;;;;;;7.90;6.28;;;3.20;99.90;;;;;;5057470;28;20302;-74
2020/12/05 09:25:11;;;;;;;7.30;6.60;;;3.20;99.90;;;;;;5060203;28;20183;-74
2020/12/05 09:27:41;;;;;;;5.53;5.03;;;3.30;99.90;;;;;;5060840;28;20703;-74
2020/12/05 09:30:11;;;;;;;9.02;6.57;;;3.40;99.90;;;;;;5063997;28;20181;-74
2020/12/05 09:32:44;;;;;;;6.75;6.07;;;3.50;99.90;;;;;;5050187;28;20680;-74
2020/12/05 09:35:12;;;;;;;10.32;6.70;;;3.60;99.90;;;;;;5053309;28;20186;-74
2020/12/05 09:37:38;;;;;;;8.93;7.38;;;3.70;99.90;;;;;;5059702;28;20260;-74
2020/12/05 09:40:05;;;;;;;8.73;6.90;;;3.80;99.90;;;;;;5063927;28;20657;-75
2020/12/05 09:42:31;;;;;;;8.40;6.97;;;3.90;99.90;;;;;;5063235;28;20515;-74
2020/12/05 09:44:57;;;;;;;6.87;6.27;;;3.90;99.90;;;;;;5059978;28;20210;-74
2020/12/05 09:47:22;;;;;;;6.67;6.00;;;4.00;99.90;;;;;;5059850;28;20245;-74
2020/12/05 09:49:48;;;;;;;6.50;5.57;;;4.10;99.90;;;;;;5058763;28;20186;-74
2020/12/05 09:52:14;;;;;;;6.37;5.67;;;4.10;99.90;;;;;;5057111;28;20450;-74
2020/12/05 09:54:39;;;;;;;5.50;5.03;;;4.20;99.90;;;;;;5052847;28;20286;-74
2020/12/05 09:57:05;;;;;;;7.60;6.50;;;4.20;99.90;;;;;;5062870;28;20193;-74
2020/12/05 09:59:31;;;;;;;10.90;7.50;;;4.20;99.90;;;;;;5059918;28;20248;-73
2020/12/05 10:01:57;;;;;;;8.10;7.30;;;4.20;99.90;;;;;;5062808;28;20214;-74
2020/12/05 10:04:23;;;;;;;10.90;8.70;;;4.30;99.90;;;;;;5062014;28;20436;-73
2020/12/05 10:06:49;;;;;;;9.48;8.23;;;4.20;99.90;;;;;;5060002;28;20194;-73
2020/12/05 10:09:15;;;;;;;9.17;8.20;;;4.10;99.90;;;;;;5062715;28;20671;-74
2020/12/05 10:11:41;;;;;;;30.37;27.50;;;4.00;99.90;;;;;;5060107;28;20444;-73
2020/12/05 10:14:06;;;;;;;18.15;16.42;;;4.10;99.90;;;;;;5055928;28;20820;-75
2020/12/05 10:16:33;;;;;;;14.87;12.10;;;4.10;99.90;;;;;;5065454;28;20197;-74
2020/12/05 10:18:58;;;;;;;27.38;18.45;;;4.10;99.90;;;;;;5060646;28;20189;-74
2020/12/05 10:21:24;;;;;;;29.60;23.00;;;4.20;99.90;;;;;;5061152;28;20185;-74
2020/12/05 10:23:49;;;;;;;28.93;20.83;;;4.20;99.90;;;;;;5061662;28;20810;-74
2020/12/05 10:26:15;;;;;;;22.67;19.23;;;4.30;99.90;;;;;;5059819;28;20212;-74
2020/12/05 10:28:40;;;;;;;29.30;22.17;;;4.40;99.90;;;;;;5059850;28;20686;-73
2020/12/05 10:31:06;;;;;;;17.70;14.13;;;4.40;99.90;;;;;;5060165;28;20183;-75
2020/12/05 10:33:31;;;;;;;14.70;12.87;;;4.40;99.90;;;;;;5062859;28;20694;-74
2020/12/05 10:35:57;;;;;;;14.17;12.70;;;4.40;99.90;;;;;;5061623;28;20190;-73
2020/12/05 10:38:22;;;;;;;18.50;15.83;;;4.40;99.90;;;;;;5058160;28;20197;-73
2020/12/05 10:40:48;;;;;;;19.97;17.87;;;4.40;99.90;;;;;;5058039;28;20229;-74
2020/12/05 10:43:13;;;;;;;19.40;15.07;;;4.40;99.90;;;;;;5056238;28;20252;-73
2020/12/05 10:45:39;;;;;;;16.60;12.17;;;4.30;99.90;;;;;;5049438;28;20190;-73
2020/12/05 10:48:04;;;;;;;11.03;9.93;;;4.30;99.90;;;;;;5048114;28;20230;-73
2020/12/05 10:50:30;;;;;;;12.50;11.20;;;4.30;99.90;;;;;;5046147;28;20638;-73
2020/12/05 10:52:55;;;;;;;12.30;11.07;;;4.20;99.90;;;;;;5061740;28;20208;-73
2020/12/05 10:55:21;;;;;;;17.50;12.80;;;4.20;99.90;;;;;;5056576;28;20519;-73
2020/12/05 10:57:46;;;;;;;19.53;15.40;;;4.10;99.90;;;;;;5062314;28;20641;-83
2020/12/05 11:00:12;;;;;;;18.10;14.13;;;4.10;99.90;;;;;;5062847;28;20174;-74
2020/12/05 11:02:37;;;;;;;23.07;15.77;;;4.00;99.90;;;;;;5053677;28;20328;-74
2020/12/05 11:05:03;;;;;;;18.57;14.63;;;4.00;99.90;;;;;;5059420;28;20182;-74
2020/12/05 11:07:28;;;;;;;18.77;14.03;;;4.00;99.90;;;;;;5058389;28;20589;-75
2020/12/05 11:09:54;;;;;;;16.70;13.80;;;4.00;99.90;;;;;;5059674;28;20695;-74
2020/12/05 11:12:19;;;;;;;20.93;16.57;;;4.00;99.90;;;;;;5053695;28;20557;-73
2020/12/05 11:14:45;;;;;;;21.30;16.13;;;4.10;99.90;;;;;;5060242;28;20181;-74
2020/12/05 11:17:10;;;;;;;20.47;15.63;;;4.10;99.90;;;;;;5055252;28;20313;-76
2020/12/05 11:19:36;;;;;;;20.13;16.70;;;4.10;99.90;;;;;;5047186;28;20183;-76
2020/12/05 11:22:01;;;;;;;20.40;16.87;;;4.20;99.90;;;;;;5059122;28;20221;-74
2020/12/05 11:24:27;;;;;;;22.00;17.00;;;4.30;99.90;;;;;;5059393;28;20179;-73
2020/12/05 11:26:53;;;;;;;21.67;16.60;;;4.30;99.90;;;;;;5059076;28;20195;-74
2020/12/05 11:29:19;;;;;;;20.15;16.55;;;4.40;99.90;;;;;;5059328;28;20241;-73
2020/12/05 11:31:44;;;;;;;17.60;15.00;;;4.50;99.90;;;;;;5059269;28;20186;-74
2020/12/05 11:34:10;;;;;;;18.33;15.00;;;4.60;99.90;;;;;;5052932;28;20256;-74
2020/12/05 11:36:35;;;;;;;19.27;15.10;;;4.70;99.90;;;;;;5060548;28;20175;-74
2020/12/05 11:39:02;;;;;;;18.10;16.20;;;4.70;99.90;;;;;;5064904;28;20213;-74
2020/12/05 11:41:27;;;;;;;17.80;15.23;;;4.80;99.90;;;;;;5054863;28;20182;-74
2020/12/05 11:43:53;;;;;;;16.60;14.90;;;4.80;99.90;;;;;;5059152;28;20708;-74
2020/12/05 11:46:18;;;;;;;15.40;13.80;;;4.80;99.90;;;;;;5055260;28;20191;-74
2020/12/05 11:48:44;;;;;;;14.83;13.23;;;4.80;99.90;;;;;;5061181;28;20234;-74
2020/12/05 11:51:09;;;;;;;17.07;14.57;;;4.80;99.90;;;;;;5067045;28;20638;-74
2020/12/05 11:53:35;;;;;;;17.63;14.93;;;4.80;99.90;;;;;;5097870;28;20637;-74
2020/12/05 11:56:00;;;;;;;20.27;15.33;;;4.80;99.90;;;;;;5064023;28;20182;-74
2020/12/05 11:58:25;;;;;;;16.90;14.67;;;4.70;99.90;;;;;;5058740;28;20183;-74
2020/12/05 12:00:51;;;;;;;17.77;15.87;;;4.70;99.90;;;;;;5067327;28;20178;-76
2020/12/05 12:03:16;;;;;;;22.17;18.07;;;4.70;99.90;;;;;;5063988;28;20254;-76
2020/12/05 12:05:42;;;;;;;19.63;16.80;;;4.70;99.90;;;;;;5063728;28;20658;-76
2020/12/05 12:08:07;;;;;;;48.30;31.20;;;4.70;99.90;;;;;;5062075;28;20186;-76
2020/12/05 12:10:33;;;;;;;83.53;48.17;;;4.70;99.90;;;;;;5064772;28;20248;-76
2020/12/05 12:12:58;;;;;;;73.10;49.77;;;4.70;99.90;;;;;;5055010;28;20174;-76
2020/12/05 12:15:24;;;;;;;67.10;50.10;;;4.80;99.90;;;;;;5064209;28;20197;-76
2020/12/05 12:17:49;;;;;;;49.07;42.50;;;4.80;99.90;;;;;;5049338;28;20245;-76
2020/12/05 12:20:15;;;;;;;35.70;30.33;;;4.80;99.90;;;;;;5060464;28;20193;-74
2020/12/05 12:22:40;;;;;;;25.70;22.67;;;4.80;99.90;;;;;;5064598;28;20225;-76
2020/12/05 12:25:06;;;;;;;40.70;31.80;;;4.80;99.90;;;;;;5068548;28;20562;-76
2020/12/05 12:27:32;;;;;;;29.83;26.60;;;4.80;99.90;;;;;;5056856;28;20186;-77
2020/12/05 12:29:57;;;;;;;28.43;23.57;;;4.80;99.90;;;;;;5048110;28;20336;-74
2020/12/05 12:32:23;;;;;;;22.93;20.63;;;4.80;99.90;;;;;;5062443;28;20190;-74
2020/12/05 12:34:51;;;;;;;26.60;23.57;;;4.90;99.90;;;;;;5065298;28;20239;-75
2020/12/05 12:37:17;;;;;;;23.42;20.92;;;4.90;99.90;;;;;;5062327;28;20214;-74
2020/12/05 12:39:43;;;;;;;23.25;20.60;;;4.90;99.90;;;;;;5061869;28;20643;-74
2020/12/05 12:42:09;;;;;;;21.30;19.10;;;4.90;99.90;;;;;;5062668;28;20201;-73
2020/12/05 12:44:35;;;;;;;20.63;17.90;;;5.00;99.90;;;;;;5063712;28;20448;-74
2020/12/05 12:47:35;;;;;;;22.03;19.77;;;5.00;99.90;;;;;;5055781;28;20225;-74
2020/12/05 12:50:04;;;;;;;22.90;19.10;;;5.00;99.90;;;;;;5056676;28;20201;-74